»·PEaware :: SWA6151 KSMF-KBOI

SWA6151 :: KSMF-KBOI

FLIGHT INFORMATION

Flight Status: Arrived
Operator:
Southwest Airlines
More flights by this operator :: More flights under this callsign
Pilot: Sanjiv S. (4490)
Aircraft: BOEING 737-800
(B738)
More flights by this aircraft type
Origin: KSMF Sacramento Intl
United States
Destination: KBOI Boise Air Terminal/Gowen
United States
More flights between these airports :: More routes between these airports
Route: RVRCT2 MACUS PRNCS SADYL2
File this flight plan on PilotEdge
Remarks:
Altitude:
(Current/Filed)
35,000ft
Speed:
(Current/Filed)
440kts
Departed: 14-Nov-17 09:37 AM
Arrived: 14-Nov-17 10:41 AM
Distance/Time
Traveled:
380nm/1:04
Distance/Time
To Go:
Arrived

Flight Plot

Page will automatically refresh every two minutes.

Flight plan parsing failed; only flown route is shown


Map Options




Map Legend


Flown Route
Filed Route
Departure Airport
Arrival Airport
Navaid (VOR, NDB)
Fix

Horizontal Profiles

Position Reports

Time Latitude Longitude Heading Altitude Ground
Speed
14-Nov-17 09:14 38.696308 -121.594594 180 27ft 0kts
14-Nov-17 09:15 38.696308 -121.594594 180 27ft 0kts
14-Nov-17 09:16 38.696308 -121.594594 180 27ft 0kts
14-Nov-17 09:17 38.696308 -121.594594 180 27ft 0kts
14-Nov-17 09:18 38.696308 -121.594594 180 27ft 0kts
14-Nov-17 09:19 38.696308 -121.594594 180 27ft 0kts
14-Nov-17 09:20 38.696308 -121.594594 180 27ft 0kts
14-Nov-17 09:21 38.696308 -121.594594 180 27ft 0kts
14-Nov-17 09:22 38.696308 -121.594594 180 27ft 0kts
14-Nov-17 09:23 38.696308 -121.594594 180 27ft 0kts
14-Nov-17 09:24 38.696308 -121.594594 180 27ft 0kts
14-Nov-17 09:25 38.696308 -121.594594 180 27ft 0kts
14-Nov-17 09:26 38.696308 -121.594594 180 27ft 0kts
14-Nov-17 09:27 38.696308 -121.594594 180 27ft 0kts
14-Nov-17 09:28 38.696308 -121.594594 180 27ft 0kts
14-Nov-17 09:29 38.696308 -121.594594 180 27ft 0kts
14-Nov-17 09:30 38.696308 -121.594594 180 27ft 0kts
14-Nov-17 09:31 38.696719 -121.594514 208 27ft 2kts
14-Nov-17 09:32 38.696988 -121.593944 271 27ft 1kts
14-Nov-17 09:33 38.696984 -121.593866 271 27ft 0kts
14-Nov-17 09:34 38.696984 -121.593866 271 27ft 0kts
14-Nov-17 09:35 38.696984 -121.593866 271 27ft 0kts
14-Nov-17 09:36 38.697000 -121.596373 270 27ft 10kts
14-Nov-17 09:37 38.695690 -121.598643 179 27ft 11kts
14-Nov-17 09:38 38.691702 -121.598712 180 26ft 18kts
14-Nov-17 09:39 38.685911 -121.598796 177 24ft 23kts
14-Nov-17 09:40 38.683837 -121.600089 269 24ft 0kts
14-Nov-17 09:41 38.683991 -121.601318 317 24ft 8kts
14-Nov-17 09:42 38.694240 -121.601304 0 24ft 142kts
14-Nov-17 09:43 38.731073 -121.572051 93 1964ft 214kts
14-Nov-17 09:44 38.720765 -121.491389 98 3694ft 266kts
14-Nov-17 09:45 38.708216 -121.398762 99 6563ft 284kts
14-Nov-17 09:46 38.697083 -121.309018 95 9079ft 299kts
14-Nov-17 09:47 38.689242 -121.210275 96 10870ft 339kts
14-Nov-17 09:48 38.679970 -121.097787 97 13278ft 360kts
14-Nov-17 09:49 38.670633 -120.983278 97 15596ft 376kts
14-Nov-17 09:50 38.660885 -120.862272 98 17777ft 395kts
14-Nov-17 09:51 38.652073 -120.726728 85 19928ft 417kts
14-Nov-17 09:52 38.708598 -120.607576 34 21980ft 424kts
14-Nov-17 09:53 38.785845 -120.492372 46 23963ft 449kts
14-Nov-17 09:54 38.865074 -120.368951 45 25859ft 467kts
14-Nov-17 09:55 38.945051 -120.244632 45 27332ft 489kts
14-Nov-17 09:56 39.033346 -120.107524 44 28752ft 512kts
14-Nov-17 09:57 39.123284 -119.968116 43 30290ft 527kts
14-Nov-17 09:58 39.216652 -119.823653 43 31734ft 540kts
14-Nov-17 09:59 39.312601 -119.675452 42 33498ft 542kts
14-Nov-17 10:00 39.407966 -119.528442 41 35195ft 538kts
14-Nov-17 10:01 39.505258 -119.378807 41 35293ft 559kts
14-Nov-17 10:02 39.596186 -119.239261 42 35267ft 559kts
14-Nov-17 10:03 39.679138 -119.112102 42 35266ft 560kts
14-Nov-17 10:04 39.795690 -118.933788 42 35279ft 559kts
14-Nov-17 10:05 39.899946 -118.785305 25 35296ft 540kts
14-Nov-17 10:06 40.008788 -118.738207 343 35300ft 466kts
14-Nov-17 10:07 40.141061 -118.701002 3 35287ft 505kts
14-Nov-17 10:08 40.274627 -118.649613 3 35290ft 503kts
14-Nov-17 10:09 40.430760 -118.589446 2 35293ft 503kts
14-Nov-17 10:10 40.561667 -118.538996 3 35295ft 486kts
14-Nov-17 10:11 40.670369 -118.497122 3 35298ft 489kts
14-Nov-17 10:12 40.800861 -118.446844 3 35300ft 489kts
14-Nov-17 10:13 40.918136 -118.401672 3 35306ft 490kts
14-Nov-17 10:14 41.013474 -118.369169 356 35309ft 471kts
14-Nov-17 10:15 41.136424 -118.318247 5 35286ft 481kts
14-Nov-17 10:16 41.264003 -118.269511 5 35288ft 481kts
14-Nov-17 10:17 41.392400 -118.220290 5 35287ft 482kts
14-Nov-17 10:18 41.520584 -118.171063 5 35289ft 481kts
14-Nov-17 10:19 41.648577 -118.121835 5 35289ft 480kts
14-Nov-17 10:20 41.776906 -118.072409 5 35282ft 481kts
14-Nov-17 10:21 41.904951 -118.023017 5 35283ft 481kts
14-Nov-17 10:22 42.033130 -117.973499 4 35284ft 481kts
14-Nov-17 10:23 42.157530 -117.925339 4 34767ft 467kts
14-Nov-17 10:24 42.263222 -117.884434 4 33289ft 471kts
14-Nov-17 10:25 42.380979 -117.838705 5 32362ft 476kts
14-Nov-17 10:26 42.495403 -117.753179 44 30300ft 502kts
14-Nov-17 10:27 42.572378 -117.599275 43 28085ft 479kts
14-Nov-17 10:28 42.654164 -117.463417 44 26023ft 460kts
14-Nov-17 10:29 42.733382 -117.331863 45 24020ft 443kts
14-Nov-17 10:30 42.809531 -117.204441 47 22101ft 428kts
14-Nov-17 10:31 42.881797 -117.080800 47 20140ft 415kts
14-Nov-17 10:32 42.952240 -116.960529 47 18161ft 394kts
14-Nov-17 10:33 43.018965 -116.846838 47 16460ft 376kts
14-Nov-17 10:34 43.083374 -116.737514 47 14825ft 365kts
14-Nov-17 10:35 43.141681 -116.638566 47 13336ft 338kts
14-Nov-17 10:36 43.198355 -116.544180 45 11917ft 311kts
14-Nov-17 10:37 43.254112 -116.456263 46 10562ft 301kts
14-Nov-17 10:38 43.307838 -116.371336 46 9257ft 288kts
14-Nov-17 10:39 43.357409 -116.293080 47 8056ft 278kts
14-Nov-17 10:40 43.398494 -116.207621 54 6862ft 252kts
14-Nov-17 10:41 43.438314 -116.139678 24 5866ft 206kts
14-Nov-17 10:42 43.487437 -116.111459 19 4971ft 187kts
14-Nov-17 10:43 43.531413 -116.126424 309 4099ft 155kts
14-Nov-17 10:44 43.549613 -116.176444 295 3179ft 142kts
14-Nov-17 10:45 43.564567 -116.220228 294 2850ft 44kts
14-Nov-17 10:46 43.566662 -116.222974 99 2850ft 9kts
14-Nov-17 10:47 43.566119 -116.221199 113 2850ft 2kts
14-Nov-17 10:48 43.566910 -116.219834 31 2850ft 4kts
14-Nov-17 10:49 43.566977 -116.219777 31 2850ft 0kts

Navigation Log

Ident Type
Flight plan parsing failed, navigation log unavailable